Portada
METAR-TAF:

METAR-TAF

Aeropuertos :

Agen, Francia

latitud: 44-11N, longitud: 000-36E, altitud: 61 m

Observación

El informe se hizo hace 21 minutos, a las 12:30 UTC
Viento 8 kt del oeste, variando entre suroeste y oeste-noroeste
Temperatura 20°C
Humedad 53%
Presión 1014 hPa
Visibilidad 10 km o más
Nubes dispersas a una altura de 4500 ft
Cielo nuboso a una altura de 5600 ft
Cielo nuboso a una altura de 7000 ft

METAR: LFBA 261230Z AUTO 27008KT 230V300 9999 SCT045 BKN056 BKN070 20/10 Q1014 NOSIG

Hora: 14:51 (12:51 UTC)

Pronóstico

El informe se hizo hace 1 hora y 51 minutos, a las 11:00 UTC
Pronóstico válido del 26 a las 12 UTC al 26 a las 21 UTC
Viento 2 kt con dirección variable
Visibilidad 10 km o más
Cielo nuboso a una altura de 4000 ft
Evolucionando progresivamente
del 26 a las 12 UTC al 26 a las 14 UTC
Viento 12 kt del oeste

TAF: LFBA 261100Z 2612/2621 VRB02KT 9999 BKN040 BECMG 2612/2614 27012KT

Observaciones y pronósticos meteorológicos de más de 4000 aeropuertos (mensajes METAR y TAF).

Los puntos amarillos y rojos representan las estaciones disponibles.

Ponga el ratón en el punto deseado para ver el nombre de la estación.

Haga clic para ver las observaciones y los pronósticos meteorológicos.

Para cambiar el mapa : haga clic en los botones verdes con una cruz de color negro para hacer un zoom, en el botón verde con un guión para alejar o en las flechas verdes para mapas adyacentes.


METAR-TAF: